createdAt,value
2018-02-03T15:45:04.892Z,8.43
2018-02-03T15:47:32.569Z,4.53
2018-02-03T15:50:00.225Z,5.50
2018-02-03T15:52:29.247Z,3.60
2018-02-03T15:54:57.532Z,5.40
2018-02-03T15:57:25.263Z,5.57
2018-02-03T15:59:53.435Z,11.47
2018-02-03T16:02:22.407Z,9.03
2018-02-03T16:04:50.111Z,8.80
2018-02-03T16:07:18.084Z,8.57
2018-02-03T16:09:46.597Z,9.57
2018-02-03T16:12:18.812Z,9.30
2018-02-03T16:14:45.558Z,5.93
2018-02-03T16:17:13.091Z,7.47
2018-02-03T16:19:40.784Z,5.97
2018-02-03T16:22:07.639Z,6.70
2018-02-03T16:24:35.459Z,8.27
2018-02-03T16:27:02.093Z,7.70
2018-02-03T16:29:30.327Z,7.57
2018-02-03T16:31:59.925Z,6.13
2018-02-03T16:34:26.687Z,7.00
2018-02-03T16:36:53.999Z,10.00
2018-02-03T16:39:21.510Z,12.37
2018-02-03T16:41:49.905Z,13.03
2018-02-03T16:44:17.444Z,8.23
2018-02-03T16:46:44.999Z,14.53
2018-02-03T16:49:12.311Z,19.00
2018-02-03T16:51:39.770Z,17.83
2018-02-03T16:54:07.454Z,12.53
2018-02-03T16:56:41.282Z,9.30
2018-02-03T16:59:08.180Z,7.27
2018-02-03T17:01:38.554Z,9.57
2018-02-03T17:04:06.955Z,9.93
2018-02-03T17:06:34.262Z,12.47
2018-02-03T17:09:01.293Z,13.70
2018-02-03T17:11:30.961Z,9.40
2018-02-03T17:13:59.123Z,17.03
2018-02-03T17:16:26.874Z,18.67
2018-02-03T17:18:53.845Z,14.50
2018-02-03T17:21:25.163Z,15.27
2018-02-03T17:23:53.367Z,11.47
2018-02-03T17:26:20.683Z,11.20
2018-02-03T17:28:48.269Z,9.40
2018-02-03T17:31:17.477Z,11.73
2018-02-03T17:33:45.086Z,11.87
2018-02-03T17:36:12.760Z,12.50
2018-02-03T17:38:45.047Z,8.03
2018-02-03T17:41:16.856Z,13.40
2018-02-03T17:43:44.748Z,9.00
2018-02-03T17:46:19.287Z,9.63
2018-02-03T17:48:46.625Z,9.40
2018-02-03T17:51:14.819Z,7.60
2018-02-03T17:53:42.385Z,8.73
2018-02-03T17:56:16.060Z,6.80
2018-02-03T17:58:43.625Z,6.97
2018-02-03T18:01:12.076Z,14.10
2018-02-03T18:03:39.573Z,17.10
2018-02-03T18:08:55.999Z,14.35
2018-02-03T18:11:24.686Z,9.50
2018-02-03T18:13:52.813Z,7.40
2018-02-03T18:16:19.871Z,8.40
2018-02-03T18:18:46.799Z,8.80
2018-02-03T18:21:16.500Z,7.27
2018-02-03T18:23:44.466Z,7.27
2018-02-03T18:26:12.034Z,6.80
2018-02-03T18:28:39.747Z,8.20
2018-02-03T18:31:07.450Z,8.07
2018-02-03T18:33:35.224Z,9.43
2018-02-03T18:36:02.096Z,8.20
2018-02-03T18:38:29.996Z,7.17
2018-02-03T18:40:58.555Z,7.30
2018-02-03T18:43:26.293Z,7.60
2018-02-03T18:45:54.733Z,6.77
2018-02-03T18:51:18.395Z,8.10
2018-02-03T18:53:52.521Z,7.17
2018-02-03T18:56:26.409Z,7.33
2018-02-03T18:58:59.570Z,6.33
2018-02-03T19:01:36.608Z,9.27
2018-02-03T19:04:10.673Z,8.00
2018-02-03T19:06:45.485Z,10.67
2018-02-03T19:09:19.225Z,12.27
2018-02-03T19:11:56.188Z,9.10
2018-02-03T19:14:30.040Z,13.30
2018-02-03T19:17:03.968Z,9.37
2018-02-03T19:19:37.890Z,11.37
2018-02-03T19:22:22.296Z,14.63
2018-02-03T19:24:55.375Z,11.80
2018-02-03T19:27:28.757Z,13.30
2018-02-03T19:30:02.674Z,16.80
2018-02-03T19:32:37.625Z,16.43
2018-02-03T19:35:11.464Z,11.10
2018-02-03T19:37:45.698Z,13.37
2018-02-03T19:40:29.912Z,13.20
2018-02-03T19:43:05.099Z,10.80
2018-02-03T19:45:40.658Z,14.50
2018-02-03T19:48:14.571Z,12.67
2018-02-03T19:50:50.109Z,7.17
2018-02-03T19:53:24.514Z,8.20
2018-02-03T19:55:58.966Z,13.47
2018-02-03T19:58:32.692Z,8.53
2018-02-03T20:01:11.343Z,7.40
2018-02-03T20:03:45.037Z,6.50
2018-02-03T20:06:19.905Z,6.30
2018-02-03T20:08:54.858Z,6.90
2018-02-03T20:11:30.500Z,6.37
2018-02-03T20:14:05.736Z,6.50
2018-02-03T20:16:39.687Z,7.07
2018-02-03T20:19:14.328Z,7.07
2018-02-03T20:21:54.051Z,6.00
2018-02-03T20:24:29.024Z,7.03
2018-02-03T20:27:02.790Z,6.43
2018-02-03T20:29:37.194Z,7.13
2018-02-03T20:32:14.707Z,6.77
2018-02-03T20:34:48.176Z,6.53
2018-02-03T20:37:21.331Z,6.57
2018-02-03T20:39:57.019Z,6.17
2018-02-03T20:42:31.568Z,6.57
2018-02-03T20:45:05.696Z,6.33
2018-02-03T20:47:39.833Z,6.73
2018-02-03T20:50:29.296Z,6.43
2018-02-03T20:53:04.428Z,9.53
2018-02-03T20:55:42.703Z,11.87
2018-02-03T20:58:17.620Z,7.87
2018-02-03T21:00:52.637Z,7.03
2018-02-03T21:03:26.301Z,8.10
2018-02-03T21:05:59.662Z,6.63
2018-02-03T21:08:33.440Z,6.90
2018-02-03T21:11:08.557Z,11.20
2018-02-03T21:13:43.983Z,7.27
2018-02-03T21:16:21.034Z,8.28
2018-02-03T21:18:55.447Z,7.87
2018-02-03T21:21:28.965Z,7.13
2018-02-03T21:24:03.893Z,9.40
2018-02-03T21:26:38.488Z,9.47
2018-02-03T21:29:13.149Z,8.13
2018-02-03T21:31:48.512Z,8.93
2018-02-03T21:34:22.572Z,9.30
2018-02-03T21:36:57.170Z,13.67
2018-02-03T21:39:31.491Z,11.60
2018-02-03T21:42:11.958Z,9.30
2018-02-03T21:44:45.455Z,8.20
2018-02-03T21:47:19.571Z,10.43
2018-02-03T21:49:56.938Z,7.57
2018-02-03T21:52:29.838Z,7.73
2018-02-03T21:55:03.085Z,7.37
2018-02-03T21:57:37.203Z,7.10
2018-02-03T22:00:12.607Z,7.80
2018-02-03T22:02:47.303Z,6.90
2018-02-03T22:05:21.866Z,6.50
2018-02-03T22:07:55.708Z,7.77
2018-02-03T22:10:30.578Z,6.40
2018-02-03T22:13:05.430Z,7.43
2018-02-03T22:15:38.591Z,10.10
2018-02-03T22:18:13.196Z,8.33
2018-02-03T22:20:47.619Z,8.70
2018-02-03T22:23:21.420Z,8.40
2018-02-03T22:25:54.927Z,6.73
2018-02-03T22:28:28.696Z,7.47
2018-02-03T22:31:03.488Z,8.53
2018-02-03T22:33:36.871Z,7.00
2018-02-03T22:36:10.248Z,5.87
2018-02-03T22:38:43.941Z,13.87
2018-02-03T22:41:19.084Z,8.03
2018-02-03T22:43:53.111Z,6.13
2018-02-03T22:46:26.992Z,7.07
2018-02-03T22:49:02.677Z,5.70
2018-02-03T22:51:39.454Z,7.67
2018-02-03T22:54:13.648Z,7.93
2018-02-03T22:56:47.472Z,8.67
2018-02-03T22:59:21.414Z,8.23
2018-02-03T23:01:58.264Z,7.27
2018-02-03T23:04:32.093Z,8.47
2018-02-03T23:07:05.699Z,7.83
2018-02-03T23:09:40.412Z,7.70
2018-02-03T23:12:14.583Z,7.87
2018-02-03T23:14:48.453Z,8.27
2018-02-03T23:17:22.114Z,6.67
2018-02-03T23:19:57.286Z,8.93
2018-02-03T23:22:31.660Z,9.60
2018-02-03T23:25:06.339Z,7.17
2018-02-03T23:27:39.889Z,8.30
2018-02-03T23:30:13.999Z,8.53
2018-02-03T23:32:48.127Z,5.73
2018-02-03T23:35:21.988Z,5.33
2018-02-03T23:37:56.147Z,6.27
2018-02-03T23:40:34.516Z,9.70
2018-02-03T23:43:09.144Z,7.17
2018-02-03T23:45:42.115Z,6.53
2018-02-03T23:48:16.211Z,7.60
2018-02-03T23:50:51.976Z,5.37
2018-02-03T23:53:25.279Z,5.37
2018-02-03T23:55:59.255Z,5.60
2018-02-03T23:58:34.372Z,5.43
